Time;durP1;ratioP1;P1;durP2;ratioP2;P2;SDS_P1;SDS_P2;PMS_P1;PMS_P2;Temp;Humidity;BMP_temperature;BMP_pressure;BME280_temperature;BME280_humidity;BME280_pressure;Samples;Min_cycle;Max_cycle;Signal;HPM_P1;HPM_P2
2022/04/30 00:00:21;;;;;;;11.15;5.85;;;10.10;61.20;;;;;;2373562;56;21063;-76
2022/04/30 00:02:48;;;;;;;10.27;4.65;;;10.10;61.20;;;;;;2372232;56;21062;-76
2022/04/30 00:05:17;;;;;;;14.43;6.72;;;10.10;61.20;;;;;;2372556;56;21094;-76
2022/04/30 00:07:45;;;;;;;8.27;5.00;;;10.10;61.30;;;;;;2372798;56;21063;-76
2022/04/30 00:10:12;;;;;;;8.68;5.50;;;10.00;61.50;;;;;;2373287;56;21070;-75
2022/04/30 00:12:40;;;;;;;8.98;5.50;;;10.00;61.60;;;;;;2373699;56;21035;-77
2022/04/30 00:15:09;;;;;;;7.55;4.80;;;10.00;61.40;;;;;;2371564;56;21150;-77
2022/04/30 00:17:37;;;;;;;9.55;5.15;;;10.00;61.40;;;;;;2372073;56;21102;-77
2022/04/30 00:20:08;;;;;;;9.43;5.43;;;10.00;61.70;;;;;;2372549;56;21023;-76
2022/04/30 00:22:35;;;;;;;11.82;6.07;;;9.90;61.90;;;;;;2372534;56;21115;-76
2022/04/30 00:25:03;;;;;;;14.60;6.25;;;9.90;62.10;;;;;;2373667;56;21039;-76
2022/04/30 00:27:31;;;;;;;8.88;6.00;;;9.90;62.10;;;;;;2625881;52;21027;-76
2022/04/30 00:29:59;;;;;;;12.32;5.70;;;9.90;62.40;;;;;;2373606;56;21091;-76
2022/04/30 00:32:26;;;;;;;11.35;5.60;;;9.80;62.40;;;;;;2626303;52;21055;-76
2022/04/30 00:34:53;;;;;;;9.88;5.85;;;9.80;62.40;;;;;;2372789;56;21055;-76
2022/04/30 00:37:21;;;;;;;9.82;4.82;;;9.80;62.60;;;;;;2372698;56;21510;-77
2022/04/30 00:39:48;;;;;;;11.80;6.10;;;9.80;62.50;;;;;;2371407;56;21147;-76
2022/04/30 00:42:15;;;;;;;7.30;5.10;;;9.70;62.30;;;;;;2626878;52;21027;-76
2022/04/30 00:44:43;;;;;;;12.43;6.25;;;9.70;62.50;;;;;;2373046;56;21126;-76
2022/04/30 00:47:16;;;;;;;10.95;6.12;;;9.70;62.50;;;;;;2373186;56;21043;-76
2022/04/30 00:49:43;;;;;;;;;;;9.60;62.40;;;;;;2630233;52;21561;-76
2022/04/30 00:52:15;;;;;;;12.88;5.72;;;9.80;62.40;;;;;;2373919;56;20093;-76
2022/04/30 00:54:46;;;;;;;11.88;5.75;;;9.70;61.50;;;;;;2372449;56;21047;-76
2022/04/30 00:57:17;;;;;;;12.65;6.28;;;9.60;61.70;;;;;;2369673;56;21130;-76
2022/04/30 00:59:46;;;;;;;14.73;6.30;;;9.60;61.90;;;;;;2372262;56;21102;-76
2022/04/30 01:02:13;;;;;;;14.68;7.22;;;9.50;62.00;;;;;;2627113;52;21091;-76
2022/04/30 01:04:40;;;;;;;13.85;6.47;;;9.50;62.00;;;;;;2373222;56;21530;-76
2022/04/30 01:07:09;;;;;;;14.32;7.15;;;9.50;62.00;;;;;;2373442;56;21530;-76
2022/04/30 01:09:42;;;;;;;12.95;6.32;;;9.40;61.90;;;;;;2373593;56;21063;-76
2022/04/30 01:12:11;;;;;;;12.65;6.62;;;9.40;61.90;;;;;;2372788;56;21557;-75
2022/04/30 01:14:39;;;;;;;13.20;6.68;;;9.40;61.80;;;;;;2624969;52;21143;-76
2022/04/30 01:17:08;;;;;;;14.65;6.35;;;9.40;61.80;;;;;;2373462;56;21051;-77
2022/04/30 01:19:37;;;;;;;13.77;5.97;;;9.40;62.10;;;;;;2373731;56;21016;-76
2022/04/30 01:22:10;;;;;;;10.45;5.43;;;9.30;62.10;;;;;;2372806;56;21019;-76
2022/04/30 01:24:38;;;;;;;14.35;6.12;;;9.30;62.40;;;;;;2373441;56;21114;-76
2022/04/30 01:27:07;;;;;;;15.38;6.70;;;9.30;62.30;;;;;;2625295;52;21051;-76
2022/04/30 01:29:36;;;;;;;14.98;6.40;;;9.30;62.40;;;;;;2373104;56;21181;-76
2022/04/30 01:37:38;;;;;;;11.00;6.62;;;9.20;62.80;;;;;;2372541;56;20999;-76
2022/04/30 01:40:08;;;;;;;12.80;6.47;;;9.10;62.80;;;;;;2373097;56;21039;-76
2022/04/30 01:42:38;;;;;;;13.68;7.55;;;9.10;63.00;;;;;;2373614;56;21039;-76
2022/04/30 01:45:08;;;;;;;10.02;5.78;;;9.10;63.20;;;;;;2373220;56;21019;-76
2022/04/30 01:47:38;;;;;;;9.55;6.05;;;9.10;63.20;;;;;;2372864;56;21645;-76
2022/04/30 01:50:08;;;;;;;10.63;6.70;;;9.10;63.40;;;;;;2372555;56;21118;-76
2022/04/30 01:52:36;;;;;;;12.63;7.03;;;9.00;63.20;;;;;;2626898;52;21031;-77
2022/04/30 01:55:04;;;;;;;11.32;5.70;;;9.00;63.10;;;;;;2626518;52;21054;-76
2022/04/30 01:57:32;;;;;;;10.65;6.97;;;9.00;63.10;;;;;;2373043;56;21125;-76
2022/04/30 02:00:02;;;;;;;11.80;6.45;;;9.00;63.10;;;;;;2626515;52;21137;-76
2022/04/30 02:02:34;;;;;;;14.13;6.70;;;8.90;63.10;;;;;;2373070;56;21031;-77
2022/04/30 02:05:06;;;;;;;15.27;7.90;;;8.90;63.10;;;;;;2373884;56;21047;-76
2022/04/30 02:07:36;;;;;;;11.52;6.72;;;8.90;63.10;;;;;;2373527;56;21055;-76
2022/04/30 02:10:06;;;;;;;13.32;6.43;;;8.90;63.10;;;;;;2626422;52;21521;-76
2022/04/30 02:12:34;;;;;;;12.27;6.87;;;8.80;63.20;;;;;;2373312;56;21039;-77
2022/04/30 02:17:40;;;;;;;12.77;7.85;;;8.80;63.20;;;;;;2315736;57;28748;-76
2022/04/30 02:20:22;;;;;;;18.60;7.15;;;8.30;66.00;;;;;;2594489;53;21102;-77
2022/04/30 02:25:27;;;;;;;14.07;5.97;;;8.70;64.30;;;;;;2355263;57;22628;-75
2022/04/30 02:27:59;;;;;;;13.68;7.15;;;8.70;63.90;;;;;;2371182;56;21046;-77
2022/04/30 02:30:29;;;;;;;12.45;7.03;;;8.70;63.60;;;;;;2628872;52;21039;-78
2022/04/30 02:32:58;;;;;;;10.45;6.40;;;8.80;63.40;;;;;;2374360;56;21043;-78
2022/04/30 02:35:28;;;;;;;12.65;6.47;;;8.70;63.20;;;;;;2627889;52;21051;-77
2022/04/30 02:37:59;;;;;;;11.45;6.35;;;8.70;63.10;;;;;;2628920;52;21054;-78
2022/04/30 02:40:27;;;;;;;9.85;5.72;;;8.60;63.00;;;;;;2624896;52;21047;-78
2022/04/30 02:43:01;;;;;;;12.25;6.28;;;8.60;63.10;;;;;;2374743;56;21043;-76
2022/04/30 02:45:28;;;;;;;12.90;7.07;;;8.60;63.20;;;;;;2626636;52;21539;-76
2022/04/30 02:47:56;;;;;;;12.50;5.70;;;8.60;63.40;;;;;;2373983;56;21035;-77
2022/04/30 02:50:25;;;;;;;11.50;6.50;;;8.50;63.70;;;;;;2373401;56;21437;-76
2022/04/30 02:53:03;;;;;;;11.07;6.35;;;8.50;64.00;;;;;;2376121;56;21137;-77
2022/04/30 02:55:30;;;;;;;8.07;6.07;;;8.50;64.20;;;;;;2374203;56;21052;-80
2022/04/30 03:00:45;;;;;;;8.60;5.30;;;8.40;64.10;;;;;;2373856;56;21624;-75
2022/04/30 03:03:14;;;;;;;12.93;6.00;;;8.40;64.10;;;;;;2373580;56;21019;-77
2022/04/30 03:05:44;;;;;;;11.75;6.95;;;8.40;64.00;;;;;;2374039;56;21031;-77
2022/04/30 03:08:16;;;;;;;13.82;6.37;;;8.40;63.90;;;;;;2373264;56;21062;-75
2022/04/30 03:10:44;;;;;;;10.57;6.28;;;8.40;63.60;;;;;;2375348;56;21035;-76
2022/04/30 03:13:13;;;;;;;13.80;6.12;;;8.40;63.50;;;;;;2628337;52;21118;-78
2022/04/30 03:15:44;;;;;;;13.40;6.37;;;8.30;63.60;;;;;;2626993;52;21058;-77
2022/04/30 03:23:47;;;;;;;12.13;7.05;;;8.30;63.50;;;;;;2550498;52;21593;-75
2022/04/30 03:26:15;;;;;;;11.02;6.78;;;8.20;63.30;;;;;;2627745;52;21393;-75
2022/04/30 03:28:43;;;;;;;13.07;7.15;;;8.20;63.40;;;;;;2374365;56;21027;-74
2022/04/30 03:31:11;;;;;;;13.35;6.60;;;8.20;63.30;;;;;;2373720;56;21079;-76
2022/04/30 03:33:39;;;;;;;14.82;7.82;;;8.20;63.40;;;;;;2626738;52;21095;-74
2022/04/30 03:36:09;;;;;;;12.65;6.87;;;8.20;63.40;;;;;;2626966;52;21040;-77
2022/04/30 03:38:37;;;;;;;12.00;6.75;;;8.20;63.40;;;;;;2373205;56;21043;-77
2022/04/30 03:41:06;;;;;;;13.07;6.75;;;8.20;63.40;;;;;;2373401;56;21098;-77
2022/04/30 03:43:34;;;;;;;15.70;7.85;;;8.10;63.40;;;;;;2627122;52;21126;-75
2022/04/30 03:46:01;;;;;;;13.75;7.62;;;8.10;63.40;;;;;;2374164;56;21583;-77
2022/04/30 03:48:28;;;;;;;15.02;7.28;;;8.10;63.50;;;;;;2627124;52;21051;-77
2022/04/30 03:50:57;;;;;;;13.07;7.55;;;8.10;63.60;;;;;;2373891;56;21059;-77
2022/04/30 03:53:24;;;;;;;10.60;6.45;;;8.10;63.60;;;;;;2372818;56;21572;-74
2022/04/30 03:55:52;;;;;;;10.38;6.22;;;8.10;63.90;;;;;;2626248;52;21047;-77
2022/04/30 04:00:54;;;;;;;17.33;9.23;;;8.00;64.20;;;;;;2308138;57;27884;-76
2022/04/30 04:03:22;;;;;;;18.90;8.38;;;7.50;66.30;;;;;;2347868;57;21061;-75
2022/04/30 04:05:51;;;;;;;17.87;7.10;;;7.80;66.00;;;;;;2596477;52;21042;-78
2022/04/30 04:08:20;;;;;;;12.90;7.62;;;7.90;65.40;;;;;;2629973;51;21130;-77
2022/04/30 04:10:48;;;;;;;12.20;6.93;;;7.90;65.00;;;;;;2630079;52;21059;-78
2022/04/30 04:18:59;;;;;;;13.73;7.43;;;8.10;64.80;;;;;;2375972;56;21038;-79
2022/04/30 04:21:27;;;;;;;11.68;6.65;;;8.10;64.80;;;;;;2629993;52;21592;-79
2022/04/30 04:26:43;;;;;;;10.95;7.40;;;8.10;65.20;;;;;;2339025;56;21111;-79
2022/04/30 04:29:10;;;;;;;14.10;7.45;;;8.10;65.10;;;;;;2630282;51;21043;-76
2022/04/30 04:31:38;;;;;;;12.50;7.40;;;8.10;65.30;;;;;;2376027;56;21083;-79
2022/04/30 04:34:05;;;;;;;12.07;6.15;;;8.10;65.50;;;;;;2374895;56;21035;-78
2022/04/30 04:36:33;;;;;;;10.63;6.80;;;8.10;65.80;;;;;;2448707;51;21613;-77
2022/04/30 04:39:00;;;;;;;17.08;8.43;;;8.10;66.00;;;;;;2373598;56;21051;-77
2022/04/30 04:41:28;;;;;;;12.98;7.10;;;8.10;65.90;;;;;;2374007;56;21044;-77
2022/04/30 04:43:55;;;;;;;10.90;7.25;;;8.20;66.80;;;;;;2626057;52;21064;-78
2022/04/30 04:46:23;;;;;;;13.10;7.65;;;8.10;66.30;;;;;;2380147;56;21030;-77
2022/04/30 04:48:51;;;;;;;12.40;7.35;;;8.20;66.70;;;;;;2661361;52;21024;-77
2022/04/30 04:51:20;;;;;;;16.00;7.43;;;8.20;66.80;;;;;;2400734;56;21093;-77
2022/04/30 04:53:47;;;;;;;15.77;8.35;;;8.20;67.10;;;;;;2401206;56;21042;-77
2022/04/30 04:56:14;;;;;;;17.05;7.68;;;8.20;67.40;;;;;;2400164;56;21026;-77
2022/04/30 04:58:41;;;;;;;14.52;8.25;;;8.30;67.80;;;;;;2401758;56;21065;-76
2022/04/30 05:01:09;;;;;;;14.13;7.22;;;8.30;68.20;;;;;;2400003;56;21054;-77
2022/04/30 05:03:36;;;;;;;13.80;8.50;;;8.40;68.50;;;;;;2400707;56;21105;-77
2022/04/30 05:06:04;;;;;;;12.37;6.40;;;8.40;68.90;;;;;;2400296;56;21055;-77
2022/04/30 05:08:31;;;;;;;12.10;7.07;;;8.40;68.90;;;;;;2400645;56;21050;-77
2022/04/30 05:10:58;;;;;;;12.13;7.00;;;8.50;69.00;;;;;;2401750;56;21058;-77
2022/04/30 05:13:26;;;;;;;12.65;6.78;;;8.50;69.00;;;;;;2659204;52;21604;-77
2022/04/30 05:15:53;;;;;;;14.73;7.68;;;8.50;69.20;;;;;;2400161;56;21045;-78
2022/04/30 05:18:21;;;;;;;15.57;8.00;;;8.60;69.50;;;;;;2401385;56;21048;-78
2022/04/30 05:20:48;;;;;;;18.75;8.88;;;8.50;69.40;;;;;;2659632;52;21106;-75
2022/04/30 05:23:16;;;;;;;1999.90;539.55;;;8.60;71.20;;;;;;2399276;56;21064;-78
2022/04/30 05:25:43;;;;;;;1999.90;860.47;;;8.60;75.30;;;;;;2659928;52;21105;-77
2022/04/30 05:28:11;;;;;;;1540.43;198.10;;;8.70;79.30;;;;;;2659178;52;21113;-75
2022/04/30 05:30:38;;;;;;;557.17;100.65;;;8.90;81.90;;;;;;2400610;56;21046;-75
2022/04/30 05:33:06;;;;;;;74.30;27.35;;;9.00;83.10;;;;;;2399129;56;21034;-75
2022/04/30 05:35:33;;;;;;;74.07;26.62;;;9.10;85.40;;;;;;2398114;56;21098;-76
2022/04/30 05:38:00;;;;;;;82.43;27.23;;;9.20;87.30;;;;;;2400010;56;21057;-76
2022/04/30 05:40:28;;;;;;;80.22;27.30;;;9.30;88.50;;;;;;2400573;56;21038;-76
2022/04/30 05:42:55;;;;;;;47.80;17.12;;;9.40;89.40;;;;;;2400564;56;21050;-76
2022/04/30 05:45:23;;;;;;;33.88;13.73;;;9.50;89.70;;;;;;2399898;56;21101;-75
2022/04/30 05:47:50;;;;;;;18.45;9.00;;;9.60;89.60;;;;;;2399676;56;21544;-76
2022/04/30 05:50:17;;;;;;;11.32;7.35;;;9.70;88.50;;;;;;2398088;56;21607;-74
2022/04/30 05:52:44;;;;;;;23.20;7.12;;;9.80;86.80;;;;;;2400342;56;21596;-76
2022/04/30 05:55:12;;;;;;;23.17;6.57;;;9.80;82.90;;;;;;2400904;56;21113;-75
2022/04/30 05:57:39;;;;;;;11.98;6.12;;;9.90;80.80;;;;;;2659549;52;21041;-76
2022/04/30 06:00:09;;;;;;;12.37;5.57;;;9.90;79.10;;;;;;2400710;56;21050;-74
2022/04/30 06:02:36;;;;;;;17.05;5.55;;;10.00;76.70;;;;;;2400485;56;21053;-74
2022/04/30 06:05:06;;;;;;;9.40;4.97;;;10.00;74.20;;;;;;2659141;52;21459;-75
2022/04/30 06:07:33;;;;;;;12.00;5.75;;;10.00;73.00;;;;;;2398779;56;21094;-75
2022/04/30 06:10:00;;;;;;;16.83;5.75;;;10.00;71.70;;;;;;2400658;56;21671;-75
2022/04/30 06:12:29;;;;;;;13.57;5.28;;;10.00;71.10;;;;;;2400271;56;21022;-74
2022/04/30 06:14:56;;;;;;;9.73;4.72;;;10.00;70.50;;;;;;2401083;56;21049;-74
2022/04/30 06:17:24;;;;;;;17.52;6.20;;;10.00;70.30;;;;;;2399059;56;21034;-74
2022/04/30 06:19:51;;;;;;;12.48;5.12;;;9.90;70.00;;;;;;2399649;56;21129;-76
2022/04/30 06:22:18;;;;;;;7.22;5.00;;;9.90;69.60;;;;;;2657995;52;21571;-74
2022/04/30 06:24:46;;;;;;;7.72;5.00;;;9.90;69.60;;;;;;2399881;56;21057;-74
2022/04/30 06:27:13;;;;;;;5.72;4.68;;;9.80;69.70;;;;;;2656213;52;21061;-74
2022/04/30 06:29:41;;;;;;;6.12;4.35;;;9.80;70.20;;;;;;2397119;56;21378;-74
2022/04/30 06:32:09;;;;;;;7.50;4.70;;;9.90;70.30;;;;;;2399329;56;21038;-74
2022/04/30 06:34:39;;;;;;;6.25;3.85;;;9.90;69.90;;;;;;2400026;56;21106;-75
2022/04/30 06:37:06;;;;;;;5.75;4.47;;;10.00;69.60;;;;;;2399421;56;21375;-75
2022/04/30 06:39:33;;;;;;;7.78;3.80;;;10.10;68.00;;;;;;2400225;56;21543;-74
2022/04/30 06:42:00;;;;;;;10.48;4.37;;;10.10;68.20;;;;;;2659689;52;21519;-74
2022/04/30 06:44:28;;;;;;;6.72;4.68;;;10.10;68.10;;;;;;2400199;56;21037;-74
2022/04/30 06:46:55;;;;;;;5.47;4.20;;;10.10;68.80;;;;;;2658977;52;21535;-74
2022/04/30 06:49:23;;;;;;;11.38;3.85;;;10.10;69.20;;;;;;2398905;56;21093;-75
2022/04/30 06:51:51;;;;;;;6.45;3.80;;;10.20;69.10;;;;;;2399114;56;21288;-75
2022/04/30 06:57:08;;;;;;;7.30;4.00;;;10.20;69.30;;;;;;2398811;56;21081;-74
2022/04/30 06:59:37;;;;;;;8.35;4.28;;;10.20;69.20;;;;;;2400371;56;21124;-75
2022/04/30 07:02:07;;;;;;;6.20;4.57;;;10.20;68.70;;;;;;2398669;56;21049;-74
2022/04/30 07:04:34;;;;;;;8.18;4.03;;;10.30;69.00;;;;;;2398097;56;21049;-75
2022/04/30 07:07:02;;;;;;;7.15;5.20;;;10.30;69.20;;;;;;2399084;56;21057;-74
2022/04/30 07:09:32;;;;;;;8.40;5.20;;;10.40;69.40;;;;;;2400070;56;21548;-75
2022/04/30 07:11:59;;;;;;;7.57;4.37;;;10.40;69.40;;;;;;2399443;56;21045;-73
2022/04/30 07:14:26;;;;;;;11.15;4.72;;;10.40;69.40;;;;;;2399344;56;21113;-73
2022/04/30 07:16:54;;;;;;;6.53;4.28;;;10.50;69.60;;;;;;2397943;56;21045;-74
2022/04/30 07:19:21;;;;;;;9.02;5.22;;;10.50;69.80;;;;;;2400227;56;21042;-75
2022/04/30 07:21:48;;;;;;;5.32;4.07;;;10.60;69.80;;;;;;2398761;56;21073;-74
2022/04/30 07:24:16;;;;;;;11.18;5.20;;;10.60;69.90;;;;;;2398871;56;21112;-75
2022/04/30 07:26:43;;;;;;;5.15;4.37;;;10.70;70.00;;;;;;2399428;56;21113;-74
2022/04/30 07:29:10;;;;;;;10.38;4.40;;;10.70;70.10;;;;;;2397814;56;21204;-75
2022/04/30 07:31:38;;;;;;;11.18;4.78;;;10.70;70.10;;;;;;2398032;56;21126;-74
2022/04/30 07:34:05;;;;;;;10.02;4.10;;;10.80;70.20;;;;;;2400285;56;21097;-74
2022/04/30 07:36:32;;;;;;;12.30;4.87;;;10.80;70.30;;;;;;2400585;56;21054;-74
2022/04/30 07:39:00;;;;;;;8.23;4.57;;;10.80;70.40;;;;;;2401285;56;21129;-74
2022/04/30 07:41:49;;;;;;;6.93;3.97;;;10.80;70.40;;;;;;2661841;52;21121;-76
2022/04/30 07:44:17;;;;;;;9.00;4.20;;;10.90;70.00;;;;;;2401069;56;21112;-74
2022/04/30 07:46:44;;;;;;;6.05;4.07;;;11.00;69.80;;;;;;2399604;56;21073;-74
2022/04/30 07:49:11;;;;;;;4.53;3.35;;;11.00;70.00;;;;;;2660203;52;21045;-74
2022/04/30 07:51:42;;;;;;;10.55;3.75;;;11.10;69.90;;;;;;2400913;56;21193;-74
2022/04/30 07:54:10;;;;;;;7.15;4.00;;;11.20;69.40;;;;;;2400811;56;21325;-75
2022/04/30 07:56:37;;;;;;;7.97;4.30;;;11.20;69.30;;;;;;2660023;52;21025;-74
2022/04/30 07:59:04;;;;;;;5.72;3.53;;;11.30;69.30;;;;;;2401167;56;21033;-75
2022/04/30 08:01:32;;;;;;;6.12;4.47;;;11.40;69.10;;;;;;2400761;56;21117;-75
2022/04/30 08:03:59;;;;;;;7.47;3.85;;;11.50;68.90;;;;;;2401242;56;21093;-75
2022/04/30 08:06:26;;;;;;;7.85;4.37;;;11.50;68.60;;;;;;2400502;56;21177;-74
2022/04/30 08:08:53;;;;;;;7.12;4.10;;;11.60;68.40;;;;;;2401246;56;21049;-74
2022/04/30 08:11:21;;;;;;;10.48;4.03;;;11.70;68.00;;;;;;2401109;56;21050;-74
2022/04/30 08:13:48;;;;;;;5.82;3.70;;;11.80;68.10;;;;;;2401158;56;21041;-75
2022/04/30 08:16:15;;;;;;;7.78;4.30;;;11.80;68.30;;;;;;2400511;56;21719;-74
2022/04/30 08:18:42;;;;;;;8.43;3.90;;;11.90;68.10;;;;;;2400615;56;21049;-74
2022/04/30 08:21:10;;;;;;;4.93;3.20;;;12.00;67.20;;;;;;2400790;56;21041;-75
2022/04/30 08:23:37;;;;;;;6.72;3.87;;;12.00;65.40;;;;;;2660482;52;21053;-74
2022/04/30 08:26:05;;;;;;;6.07;3.55;;;12.10;65.00;;;;;;2400672;56;21113;-75
2022/04/30 08:28:32;;;;;;;5.97;3.55;;;12.20;65.00;;;;;;2400961;56;21102;-74
2022/04/30 08:30:59;;;;;;;6.55;3.58;;;12.30;64.50;;;;;;2401170;56;21054;-75
2022/04/30 08:33:28;;;;;;;7.75;4.22;;;12.30;65.00;;;;;;2660746;52;21037;-75
2022/04/30 08:35:56;;;;;;;9.75;4.30;;;12.40;64.40;;;;;;2400354;56;21405;-74
2022/04/30 08:38:23;;;;;;;6.10;3.90;;;12.50;64.40;;;;;;2660024;52;21674;-75
2022/04/30 08:40:51;;;;;;;6.53;3.95;;;12.50;64.60;;;;;;2400810;56;21137;-75
2022/04/30 08:43:21;;;;;;;8.23;4.40;;;12.50;63.50;;;;;;2401269;56;21049;-75
2022/04/30 08:45:48;;;;;;;10.57;4.65;;;12.60;63.30;;;;;;2400926;56;21113;-74
2022/04/30 08:48:17;;;;;;;6.82;4.05;;;12.60;63.50;;;;;;2400753;56;21041;-75
2022/04/30 08:50:47;;;;;;;8.32;4.05;;;12.60;63.00;;;;;;2660903;52;21050;-75
2022/04/30 08:53:16;;;;;;;6.95;3.80;;;12.60;63.20;;;;;;2401404;56;21288;-73
2022/04/30 08:55:43;;;;;;;6.25;3.30;;;12.70;62.40;;;;;;2660438;52;21114;-75
2022/04/30 08:58:11;;;;;;;8.63;3.60;;;12.70;62.00;;;;;;2401024;56;21097;-75
2022/04/30 09:00:43;;;;;;;7.03;3.60;;;12.70;61.50;;;;;;2401495;56;21124;-75
2022/04/30 09:03:14;;;;;;;4.60;2.85;;;12.70;62.10;;;;;;2400298;56;21132;-74
2022/04/30 09:05:41;;;;;;;6.72;3.40;;;12.70;60.80;;;;;;2399962;56;21046;-74
2022/04/30 09:08:08;;;;;;;5.20;3.37;;;12.70;60.60;;;;;;2401227;56;21113;-75
2022/04/30 09:10:38;;;;;;;7.50;3.62;;;12.80;61.20;;;;;;2660574;52;21175;-74
2022/04/30 09:13:07;;;;;;;5.90;2.70;;;12.80;61.00;;;;;;2660934;52;21090;-75
2022/04/30 09:15:35;;;;;;;3.15;2.17;;;12.90;59.80;;;;;;2400680;56;21105;-75
2022/04/30 09:18:04;;;;;;;3.78;2.30;;;13.00;59.00;;;;;;2401322;56;21124;-75
2022/04/30 09:20:41;;;;;;;3.78;2.40;;;13.00;57.70;;;;;;2401546;56;21125;-75
2022/04/30 09:23:09;;;;;;;4.32;2.40;;;13.00;56.90;;;;;;2659508;52;21110;-75
2022/04/30 09:25:37;;;;;;;5.10;2.92;;;13.10;56.30;;;;;;2400790;56;21041;-74
2022/04/30 09:28:05;;;;;;;3.70;2.30;;;13.10;56.80;;;;;;2400662;56;21105;-75
2022/04/30 09:30:33;;;;;;;2.65;2.25;;;13.10;56.60;;;;;;2401300;56;21057;-75
2022/04/30 09:33:03;;;;;;;4.43;2.53;;;13.20;56.70;;;;;;2400897;56;21373;-75
2022/04/30 09:41:20;;;;;;;4.93;2.25;;;13.10;55.30;;;;;;2355480;57;22046;-76
2022/04/30 09:43:57;;;;;;;4.85;2.50;;;13.20;55.50;;;;;;2347735;57;21307;-76
2022/04/30 09:46:25;;;;;;;2.53;2.20;;;13.20;55.30;;;;;;2603050;52;21122;-74
2022/04/30 09:54:26;;;;;;;5.07;1.85;;;13.30;54.70;;;;;;2375360;56;21082;-74
2022/04/30 09:56:55;;;;;;;2.47;1.55;;;13.40;54.70;;;;;;2374816;56;21050;-74
2022/04/30 09:59:25;;;;;;;4.50;2.12;;;13.40;53.80;;;;;;2375451;56;21055;-75
2022/04/30 10:01:54;;;;;;;3.92;1.90;;;13.50;53.60;;;;;;2374644;56;21339;-74
2022/04/30 10:04:22;;;;;;;4.05;2.10;;;13.50;53.70;;;;;;2374604;56;21122;-74
2022/04/30 10:06:50;;;;;;;4.30;2.15;;;13.50;52.80;;;;;;2374760;56;21047;-74
2022/04/30 10:09:20;;;;;;;3.25;2.00;;;13.60;53.10;;;;;;2373654;56;21059;-74
2022/04/30 10:12:02;;;;;;;6.07;2.40;;;13.60;52.70;;;;;;2373756;56;21584;-74
2022/04/30 10:14:48;;;;;;;4.10;1.98;;;13.60;52.00;;;;;;2373775;56;21117;-74
2022/04/30 10:17:17;;;;;;;3.53;2.00;;;13.70;52.60;;;;;;2373654;56;21117;-75
2022/04/30 10:19:45;;;;;;;4.55;2.08;;;13.80;52.90;;;;;;2374595;56;21609;-75
2022/04/30 10:22:15;;;;;;;4.18;1.92;;;13.90;52.00;;;;;;2373982;56;21051;-73
2022/04/30 10:24:46;;;;;;;3.20;2.08;;;13.90;52.20;;;;;;2373872;56;21039;-75
2022/04/30 10:27:14;;;;;;;4.45;2.17;;;14.00;52.20;;;;;;2373675;56;21115;-75
2022/04/30 10:29:56;;;;;;;5.12;2.72;;;14.00;52.80;;;;;;2628230;52;21083;-74
2022/04/30 10:32:30;;;;;;;7.97;2.37;;;14.10;51.40;;;;;;2374856;56;21074;-75
2022/04/30 10:34:59;;;;;;;3.30;2.20;;;14.20;51.50;;;;;;2374659;56;21533;-74
2022/04/30 10:40:10;;;;;;;3.08;2.30;;;14.40;50.30;;;;;;2354996;57;22566;-75
2022/04/30 10:42:42;;;;;;;2.62;1.92;;;14.50;50.00;;;;;;2346378;57;21128;-76
2022/04/30 10:45:15;;;;;;;3.70;2.00;;;14.60;50.20;;;;;;2346669;57;21300;-75
2022/04/30 10:47:53;;;;;;;5.85;2.20;;;14.70;48.70;;;;;;2368473;56;21043;-76
2022/04/30 10:50:20;;;;;;;7.50;2.25;;;14.80;48.70;;;;;;2374190;56;21046;-75
2022/04/30 10:52:48;;;;;;;4.62;2.10;;;14.80;48.50;;;;;;2628048;52;21066;-75
2022/04/30 10:55:17;;;;;;;3.75;1.67;;;14.90;47.50;;;;;;2374169;56;21117;-75
2022/04/30 10:57:46;;;;;;;4.50;1.98;;;15.00;47.50;;;;;;2627205;52;21055;-76
2022/04/30 11:00:14;;;;;;;5.10;2.10;;;15.10;48.00;;;;;;2374594;56;21039;-76
2022/04/30 11:02:42;;;;;;;4.18;2.30;;;15.10;48.00;;;;;;2373282;56;21086;-76
2022/04/30 11:05:19;;;;;;;6.32;1.92;;;15.20;48.30;;;;;;2373112;56;21154;-75
2022/04/30 11:07:46;;;;;;;3.50;2.42;;;15.20;48.50;;;;;;2372421;56;21043;-76
2022/04/30 11:10:15;;;;;;;9.38;2.47;;;15.20;48.10;;;;;;2374089;56;21755;-76
2022/04/30 11:12:44;;;;;;;2.67;1.85;;;15.30;48.20;;;;;;2372455;56;21031;-76
2022/04/30 11:15:14;;;;;;;6.78;2.05;;;15.40;48.40;;;;;;2373170;56;21506;-75
2022/04/30 11:17:45;;;;;;;3.53;2.03;;;15.60;48.00;;;;;;2374456;56;21050;-75
2022/04/30 11:20:22;;;;;;;4.97;2.10;;;15.80;48.20;;;;;;2374742;56;21042;-75
2022/04/30 11:22:53;;;;;;;4.75;2.35;;;15.90;47.50;;;;;;2373740;56;21083;-74
2022/04/30 11:25:20;;;;;;;6.20;2.10;;;16.00;46.50;;;;;;2373648;56;21059;-75
2022/04/30 11:27:48;;;;;;;3.75;2.33;;;16.10;45.50;;;;;;2374187;56;21715;-75
2022/04/30 11:30:19;;;;;;;4.95;2.80;;;16.20;44.70;;;;;;2374344;56;21043;-74
2022/04/30 11:32:49;;;;;;;4.28;2.22;;;16.30;45.10;;;;;;2627517;52;21098;-75
2022/04/30 11:35:17;;;;;;;4.18;2.45;;;16.40;45.30;;;;;;2373656;56;21118;-75
2022/04/30 11:37:44;;;;;;;5.03;2.58;;;16.50;45.60;;;;;;2627395;52;21107;-75
2022/04/30 11:40:12;;;;;;;6.97;2.70;;;16.50;44.20;;;;;;2626752;52;21637;-75
2022/04/30 11:42:40;;;;;;;5.12;2.78;;;16.50;44.20;;;;;;2628116;52;21122;-76
2022/04/30 11:45:09;;;;;;;3.47;1.87;;;16.60;44.60;;;;;;2373656;56;21055;-75
2022/04/30 11:47:37;;;;;;;3.30;2.25;;;16.60;44.40;;;;;;2374313;56;21110;-75
2022/04/30 11:50:07;;;;;;;3.75;2.25;;;16.70;43.80;;;;;;2373574;56;21123;-75
2022/04/30 11:52:35;;;;;;;4.07;2.37;;;16.70;44.10;;;;;;2373980;56;21592;-75
2022/04/30 11:55:04;;;;;;;13.85;2.72;;;16.80;44.40;;;;;;2371584;56;21063;-75
2022/04/30 11:57:34;;;;;;;6.35;2.42;;;16.80;44.80;;;;;;2626042;52;21051;-75
2022/04/30 12:00:01;;;;;;;4.95;2.80;;;16.70;44.80;;;;;;2373236;56;21039;-76
2022/04/30 12:02:30;;;;;;;4.12;2.87;;;16.80;45.10;;;;;;2372709;56;21051;-75
2022/04/30 12:05:03;;;;;;;4.03;2.78;;;16.80;45.10;;;;;;2372817;56;21051;-74
2022/04/30 12:07:37;;;;;;;3.15;2.60;;;16.80;44.90;;;;;;2372872;56;21066;-76
2022/04/30 12:10:15;;;;;;;3.70;2.70;;;16.80;44.00;;;;;;2373300;56;21043;-74
2022/04/30 12:12:43;;;;;;;4.37;2.70;;;16.80;44.90;;;;;;2373460;56;21059;-74
2022/04/30 12:15:21;;;;;;;3.87;2.47;;;16.80;43.60;;;;;;2625292;52;21096;-75
2022/04/30 12:26:13;;;;;;;4.85;2.90;;;16.80;44.30;;;;;;2370445;56;21572;-76
2022/04/30 12:28:49;;;;;;;5.97;3.10;;;16.80;45.00;;;;;;2371710;56;21032;-76
2022/04/30 12:31:19;;;;;;;7.07;3.62;;;16.80;43.40;;;;;;2625380;52;21059;-75
2022/04/30 12:33:48;;;;;;;4.72;2.70;;;16.80;43.60;;;;;;2373608;56;21125;-74
2022/04/30 12:36:16;;;;;;;4.82;2.95;;;16.80;43.30;;;;;;2624870;52;21055;-75
2022/04/30 12:38:54;;;;;;;4.85;2.60;;;16.90;43.00;;;;;;2373022;56;21054;-76
2022/04/30 12:41:23;;;;;;;5.25;2.28;;;16.90;42.70;;;;;;2626960;52;21106;-75
2022/04/30 12:43:50;;;;;;;5.18;2.42;;;17.00;43.20;;;;;;2373670;56;21058;-75
2022/04/30 12:46:21;;;;;;;3.87;2.33;;;17.00;42.90;;;;;;2625780;52;21082;-76
2022/04/30 12:48:48;;;;;;;4.18;2.60;;;17.10;42.50;;;;;;2626800;52;21027;-76
2022/04/30 12:51:17;;;;;;;4.20;2.70;;;17.00;42.00;;;;;;2372614;56;21628;-76
2022/04/30 12:53:44;;;;;;;5.90;2.50;;;17.10;42.10;;;;;;2373421;56;21102;-75
2022/04/30 12:56:12;;;;;;;6.03;2.17;;;17.00;41.90;;;;;;2371235;56;21044;-76
2022/04/30 12:58:40;;;;;;;5.72;3.05;;;17.00;43.10;;;;;;2372414;56;21138;-75
2022/04/30 13:01:08;;;;;;;7.78;2.90;;;17.00;42.70;;;;;;2625476;52;21047;-75
2022/04/30 13:03:35;;;;;;;3.20;2.40;;;16.90;43.00;;;;;;2373092;56;21059;-75
2022/04/30 13:06:04;;;;;;;6.95;3.40;;;16.90;43.10;;;;;;2623694;52;21062;-76
2022/04/30 13:14:04;;;;;;;4.07;2.30;;;17.10;42.60;;;;;;2372130;56;21083;-75
2022/04/30 13:16:32;;;;;;;7.82;2.58;;;17.10;42.60;;;;;;2625653;52;21063;-76
2022/04/30 13:19:01;;;;;;;5.03;4.07;;;17.20;42.80;;;;;;2373174;56;21545;-76
2022/04/30 13:21:29;;;;;;;3.85;2.70;;;17.20;42.40;;;;;;2626681;52;21039;-76
2022/04/30 13:23:56;;;;;;;4.87;2.78;;;17.30;41.70;;;;;;2374080;56;21020;-76
2022/04/30 13:26:23;;;;;;;6.62;2.50;;;17.30;41.20;;;;;;2625605;52;21055;-75
2022/04/30 13:28:51;;;;;;;10.35;6.65;;;17.30;41.60;;;;;;2372801;56;21111;-75
2022/04/30 13:31:18;;;;;;;5.95;4.68;;;17.40;41.70;;;;;;2372929;56;21550;-75
2022/04/30 13:33:45;;;;;;;5.03;2.58;;;17.40;42.30;;;;;;2373303;56;21110;-75
2022/04/30 13:36:13;;;;;;;6.50;2.45;;;17.50;41.10;;;;;;2372591;56;21169;-76
2022/04/30 13:38:42;;;;;;;5.45;2.85;;;17.60;41.70;;;;;;2626963;52;21106;-76
2022/04/30 13:41:09;;;;;;;4.32;2.75;;;17.60;41.00;;;;;;2372541;56;21035;-76
2022/04/30 13:43:37;;;;;;;7.72;3.60;;;17.60;40.80;;;;;;2373396;56;21546;-76
2022/04/30 13:46:04;;;;;;;4.12;2.50;;;17.80;40.60;;;;;;2625890;52;21616;-76
2022/04/30 13:48:33;;;;;;;2.90;2.20;;;17.70;39.60;;;;;;2373965;56;21035;-76
2022/04/30 13:51:01;;;;;;;3.67;2.47;;;17.80;39.70;;;;;;2627331;52;21094;-75
2022/04/30 13:53:28;;;;;;;4.07;2.00;;;17.70;39.20;;;;;;2626576;52;21090;-76